createdAt,value
2022-10-20T00:00:54.391Z,7.32
2022-10-20T00:03:22.101Z,6.20
2022-10-20T00:05:49.685Z,6.75
2022-10-20T00:08:17.259Z,6.28
2022-10-20T00:13:25.827Z,7.57
2022-10-20T00:15:53.841Z,6.82
2022-10-20T00:18:21.647Z,6.40
2022-10-20T00:20:49.273Z,7.22
2022-10-20T00:23:16.687Z,7.25
2022-10-20T00:25:44.187Z,6.80
2022-10-20T00:28:11.488Z,7.10
2022-10-20T00:30:38.773Z,7.38
2022-10-20T00:33:06.574Z,7.40
2022-10-20T00:35:34.207Z,6.88
2022-10-20T00:38:01.572Z,7.05
2022-10-20T00:40:29.080Z,7.60
2022-10-20T00:42:56.401Z,7.50
2022-10-20T00:45:23.624Z,7.50
2022-10-20T00:47:53.307Z,6.93
2022-10-20T00:50:31.213Z,7.18
2022-10-20T00:52:58.555Z,8.20
2022-10-20T00:55:30.216Z,7.75
2022-10-20T00:57:58.938Z,7.55
2022-10-20T01:00:26.530Z,7.05
2022-10-20T01:02:54.825Z,7.75
2022-10-20T01:05:22.342Z,8.00
2022-10-20T01:07:49.804Z,7.72
2022-10-20T01:10:17.856Z,8.02
2022-10-20T01:12:55.016Z,9.02
2022-10-20T01:15:22.279Z,7.65
2022-10-20T01:18:05.978Z,7.60
2022-10-20T01:20:52.230Z,8.57
2022-10-20T01:23:38.119Z,7.47
2022-10-20T01:26:23.931Z,8.65
2022-10-20T01:28:55.160Z,7.45
2022-10-20T01:31:41.055Z,7.38
2022-10-20T01:34:14.356Z,8.38
2022-10-20T01:36:45.855Z,7.72
2022-10-20T01:39:18.446Z,7.55
2022-10-20T01:41:57.144Z,8.65
2022-10-20T01:44:25.860Z,8.38
2022-10-20T01:46:53.685Z,8.23
2022-10-20T01:49:20.928Z,7.78
2022-10-20T01:51:48.183Z,8.68
2022-10-20T01:54:25.546Z,8.95
2022-10-20T01:57:11.393Z,8.80
2022-10-20T01:59:47.509Z,8.73
2022-10-20T02:02:17.756Z,9.32
2022-10-20T02:05:05.265Z,9.15
2022-10-20T02:07:33.698Z,8.77
2022-10-20T02:10:04.638Z,9.43
2022-10-20T02:12:35.486Z,9.63
2022-10-20T02:15:03.472Z,8.50
2022-10-20T02:17:30.808Z,9.68
2022-10-20T02:19:58.441Z,9.48
2022-10-20T02:22:26.191Z,9.27
2022-10-20T02:24:53.485Z,9.00
2022-10-20T02:27:28.080Z,9.60
2022-10-20T02:29:58.710Z,9.70
2022-10-20T02:32:26.220Z,9.50
2022-10-20T02:34:53.464Z,9.05
2022-10-20T02:37:20.724Z,10.00
2022-10-20T02:39:47.965Z,10.10
2022-10-20T02:42:17.440Z,9.63
2022-10-20T02:44:44.715Z,9.88
2022-10-20T02:47:11.994Z,10.07
2022-10-20T02:49:39.364Z,9.73
2022-10-20T02:52:06.688Z,9.88
2022-10-20T02:54:33.970Z,8.70
2022-10-20T02:57:01.333Z,9.25
2022-10-20T02:59:28.575Z,9.90
2022-10-20T03:01:56.106Z,9.82
2022-10-20T03:04:23.525Z,9.90
2022-10-20T03:06:50.796Z,10.00
2022-10-20T03:09:17.977Z,9.70
2022-10-20T03:11:45.360Z,9.27
2022-10-20T03:14:12.836Z,9.55
2022-10-20T03:16:40.121Z,10.43
2022-10-20T03:19:11.321Z,9.82
2022-10-20T03:21:39.223Z,9.80
2022-10-20T03:24:06.630Z,9.25
2022-10-20T03:26:33.991Z,9.77
2022-10-20T03:29:01.276Z,10.18
2022-10-20T03:31:28.590Z,9.65
2022-10-20T03:33:55.945Z,10.23
2022-10-20T03:36:23.454Z,10.55
2022-10-20T03:38:50.767Z,10.07
2022-10-20T03:41:18.146Z,9.55
2022-10-20T03:43:45.367Z,9.45
2022-10-20T03:46:12.824Z,9.88
2022-10-20T03:48:40.423Z,9.57
2022-10-20T03:51:09.214Z,10.43
2022-10-20T03:53:36.424Z,10.20
2022-10-20T03:56:07.772Z,9.93
2022-10-20T03:58:35.272Z,10.52
2022-10-20T04:01:02.897Z,10.52
2022-10-20T04:03:30.334Z,10.43
2022-10-20T04:05:57.603Z,9.85
2022-10-20T04:08:24.957Z,9.77
2022-10-20T04:10:52.529Z,10.73
2022-10-20T04:13:19.778Z,9.77
2022-10-20T04:15:46.954Z,10.05
2022-10-20T04:18:14.259Z,9.88
2022-10-20T04:20:44.341Z,10.93
2022-10-20T04:23:12.378Z,10.50
2022-10-20T04:25:41.037Z,10.95
2022-10-20T04:28:08.919Z,10.27
2022-10-20T04:30:36.255Z,10.70
2022-10-20T04:33:03.705Z,10.23
2022-10-20T04:35:30.870Z,10.00
2022-10-20T04:37:58.144Z,10.15
2022-10-20T04:40:25.485Z,9.60
2022-10-20T04:42:52.823Z,10.77
2022-10-20T04:45:20.034Z,10.95
2022-10-20T04:47:49.469Z,9.90
2022-10-20T04:50:16.711Z,10.05
2022-10-20T04:52:59.566Z,10.32
2022-10-20T04:55:26.989Z,9.93
2022-10-20T04:57:54.596Z,10.07
2022-10-20T05:00:21.959Z,10.52
2022-10-20T05:02:49.190Z,10.02
2022-10-20T05:05:16.527Z,10.45
2022-10-20T05:07:44.003Z,10.40
2022-10-20T05:10:11.286Z,10.77
2022-10-20T05:12:38.713Z,9.63
2022-10-20T05:15:06.392Z,10.57
2022-10-20T05:17:33.595Z,11.32
2022-10-20T05:20:00.971Z,10.60
2022-10-20T05:22:28.367Z,10.32
2022-10-20T05:24:58.431Z,10.85
2022-10-20T05:27:31.737Z,10.95
2022-10-20T05:29:58.947Z,10.45
2022-10-20T05:32:26.215Z,10.27
2022-10-20T05:34:53.731Z,10.18
2022-10-20T05:37:24.204Z,10.23
2022-10-20T05:39:52.702Z,10.75
2022-10-20T05:42:19.951Z,10.40
2022-10-20T05:44:47.286Z,12.20
2022-10-20T05:47:14.496Z,10.75
2022-10-20T05:49:41.847Z,10.68
2022-10-20T05:52:09.069Z,11.13
2022-10-20T05:54:36.296Z,11.07
2022-10-20T05:57:03.643Z,11.38
2022-10-20T05:59:32.458Z,11.30
2022-10-20T06:01:59.651Z,13.00
2022-10-20T06:04:28.259Z,11.48
2022-10-20T06:06:55.612Z,11.75
2022-10-20T06:09:24.392Z,11.05
2022-10-20T06:11:52.102Z,11.38
2022-10-20T06:14:22.322Z,11.43
2022-10-20T06:16:53.269Z,11.15
2022-10-20T06:19:20.949Z,13.23
2022-10-20T06:21:49.427Z,11.65
2022-10-20T06:24:17.221Z,11.10
2022-10-20T06:26:44.809Z,12.57
2022-10-20T06:29:13.541Z,11.63
2022-10-20T06:31:42.260Z,12.63
2022-10-20T06:34:12.605Z,12.63
2022-10-20T06:36:40.582Z,11.07
2022-10-20T06:39:08.603Z,11.02
2022-10-20T06:41:36.198Z,12.05
2022-10-20T06:44:03.445Z,11.68
2022-10-20T06:46:32.103Z,11.55
2022-10-20T06:49:05.967Z,11.25
2022-10-20T06:51:33.864Z,12.73
2022-10-20T06:54:01.681Z,11.43
2022-10-20T06:56:30.408Z,10.98
2022-10-20T06:58:58.621Z,11.80
2022-10-20T07:01:28.075Z,11.38
2022-10-20T07:03:56.841Z,11.75
2022-10-20T07:06:25.356Z,11.82
2022-10-20T07:08:53.932Z,10.88
2022-10-20T07:11:22.277Z,9.15
2022-10-20T07:13:49.795Z,9.82
2022-10-20T07:16:18.353Z,10.50
2022-10-20T07:18:45.710Z,10.15
2022-10-20T07:21:14.458Z,10.07
2022-10-20T07:23:42.104Z,9.38
2022-10-20T07:26:22.221Z,10.07
2022-10-20T07:28:55.727Z,9.52
2022-10-20T07:31:33.662Z,10.03
2022-10-20T07:34:07.434Z,10.05
2022-10-20T07:36:44.535Z,10.20
2022-10-20T07:39:13.193Z,10.25
2022-10-20T07:41:40.704Z,9.88
2022-10-20T07:44:08.192Z,10.30
2022-10-20T07:46:36.479Z,10.18
2022-10-20T07:49:38.173Z,9.93
2022-10-20T07:51:51.851Z,9.75
2022-10-20T07:54:19.063Z,10.45
2022-10-20T07:56:46.673Z,9.98
2022-10-20T07:59:14.320Z,9.95
2022-10-20T08:01:41.988Z,9.73
2022-10-20T08:04:09.316Z,10.52
2022-10-20T08:06:39.126Z,10.43
2022-10-20T08:09:07.375Z,10.27
2022-10-20T08:11:35.098Z,9.73
2022-10-20T08:14:02.536Z,10.48
2022-10-20T08:16:29.883Z,10.52
2022-10-20T08:19:05.862Z,9.52
2022-10-20T08:21:33.438Z,10.30
2022-10-20T08:24:02.536Z,9.43
2022-10-20T08:26:29.905Z,10.15
2022-10-20T08:28:57.288Z,10.05
2022-10-20T08:31:24.729Z,10.00
2022-10-20T08:33:53.188Z,10.32
2022-10-20T08:36:21.507Z,9.23
2022-10-20T08:38:49.013Z,9.93
2022-10-20T08:41:21.490Z,10.15
2022-10-20T08:43:50.123Z,10.73
2022-10-20T08:48:51.267Z,9.85
2022-10-20T08:51:28.648Z,9.48
2022-10-20T08:53:57.390Z,8.70
2022-10-20T08:56:26.062Z,9.40
2022-10-20T08:58:53.744Z,9.85
2022-10-20T09:01:22.781Z,9.68
2022-10-20T09:04:00.438Z,10.52
2022-10-20T09:06:27.853Z,10.52
2022-10-20T09:08:55.972Z,10.65
2022-10-20T09:11:28.520Z,9.70
2022-10-20T09:13:55.872Z,9.93
2022-10-20T09:16:42.081Z,10.02
2022-10-20T09:19:20.696Z,9.95
2022-10-20T09:21:50.956Z,10.43
2022-10-20T09:24:19.483Z,9.57
2022-10-20T09:27:04.244Z,9.88
2022-10-20T09:29:39.074Z,10.23
2022-10-20T09:32:45.015Z,10.63
2022-10-20T09:35:20.562Z,10.35
2022-10-20T09:37:53.550Z,10.40
2022-10-20T09:40:21.328Z,10.52
2022-10-20T09:42:53.521Z,9.63
2022-10-20T09:45:28.544Z,11.05
2022-10-20T09:47:59.983Z,10.55
2022-10-20T09:50:27.435Z,10.40
2022-10-20T09:52:55.145Z,10.43
2022-10-20T09:55:45.248Z,11.27
2022-10-20T09:58:19.036Z,11.15
2022-10-20T10:00:47.686Z,10.13
2022-10-20T10:03:22.772Z,9.75
2022-10-20T10:05:52.038Z,10.50
2022-10-20T10:08:20.116Z,10.25
2022-10-20T10:10:58.448Z,10.75
2022-10-20T10:13:27.384Z,10.32
2022-10-20T10:16:06.020Z,10.57
2022-10-20T10:18:33.777Z,9.13
2022-10-20T10:21:02.917Z,10.27
2022-10-20T10:23:31.525Z,11.38
2022-10-20T10:26:02.015Z,12.13
2022-10-20T10:28:33.548Z,11.95
2022-10-20T10:31:19.549Z,11.77
2022-10-20T10:33:47.223Z,11.38
2022-10-20T10:36:34.705Z,11.13
2022-10-20T10:39:02.835Z,10.40
2022-10-20T10:41:36.632Z,11.32
2022-10-20T10:44:12.795Z,11.83
2022-10-20T10:46:58.814Z,13.40
2022-10-20T10:49:29.299Z,11.68
2022-10-20T10:51:59.552Z,11.70
2022-10-20T10:54:33.002Z,12.15
2022-10-20T10:57:03.266Z,11.20
2022-10-20T10:59:35.223Z,10.48
2022-10-20T11:02:05.615Z,10.90
2022-10-20T11:04:40.644Z,10.15
2022-10-20T11:07:13.895Z,10.13
2022-10-20T11:09:47.307Z,11.40
2022-10-20T11:12:26.413Z,10.38
2022-10-20T11:15:26.273Z,9.80
2022-10-20T11:18:02.526Z,10.32
2022-10-20T11:20:41.772Z,10.32
2022-10-20T11:23:29.314Z,10.77
2022-10-20T11:26:03.814Z,9.90
2022-10-20T11:28:35.764Z,10.55
2022-10-20T11:31:05.047Z,10.40
2022-10-20T11:33:44.082Z,10.20
2022-10-20T11:36:16.965Z,9.77
2022-10-20T11:38:51.924Z,10.10
2022-10-20T11:41:22.065Z,9.77
2022-10-20T11:44:00.808Z,10.57
2022-10-20T11:46:31.288Z,9.70
2022-10-20T11:49:01.727Z,10.57
2022-10-20T11:51:40.884Z,9.45
2022-10-20T11:54:26.848Z,9.25
2022-10-20T11:56:58.635Z,9.25
2022-10-20T11:59:44.452Z,9.73
2022-10-20T12:02:11.975Z,10.30
2022-10-20T12:04:50.548Z,9.52
2022-10-20T12:07:32.549Z,10.13
2022-10-20T12:10:04.676Z,9.93
2022-10-20T12:12:37.657Z,9.82
2022-10-20T12:15:19.781Z,9.20
2022-10-20T12:17:47.379Z,9.82
2022-10-20T12:20:23.784Z,9.15
2022-10-20T12:23:02.452Z,9.70
2022-10-20T12:25:37.298Z,9.85
2022-10-20T12:28:23.044Z,9.55
2022-10-20T12:30:59.389Z,9.60
2022-10-20T12:33:45.285Z,8.75
2022-10-20T12:36:26.378Z,9.48
2022-10-20T12:38:54.938Z,9.43
2022-10-20T12:41:27.176Z,9.38
2022-10-20T12:43:55.899Z,8.98
2022-10-20T12:46:26.856Z,8.50
2022-10-20T12:49:00.286Z,8.98
2022-10-20T12:51:30.383Z,8.23
2022-10-20T12:54:00.311Z,7.43
2022-10-20T12:56:29.163Z,7.63
2022-10-20T12:59:15.323Z,8.32
2022-10-20T13:02:02.278Z,7.75
2022-10-20T13:04:48.052Z,7.38
2022-10-20T13:07:15.378Z,7.28
2022-10-20T13:09:57.979Z,5.60
2022-10-20T13:14:59.387Z,6.43
2022-10-20T13:17:30.655Z,5.90
2022-10-20T13:20:21.059Z,5.80
2022-10-20T13:22:50.556Z,5.03
2022-10-20T13:25:22.995Z,5.10
2022-10-20T13:27:50.614Z,5.50
2022-10-20T13:30:22.846Z,4.80
2022-10-20T13:36:09.175Z,4.95
2022-10-20T13:38:40.141Z,4.60
2022-10-20T13:41:16.998Z,4.90
2022-10-20T13:43:47.093Z,4.15
2022-10-20T13:46:17.400Z,3.92
2022-10-20T13:48:47.428Z,4.32
2022-10-20T13:51:19.894Z,3.92
2022-10-20T13:53:49.623Z,4.40
2022-10-20T13:56:16.773Z,4.07
2022-10-20T13:59:05.491Z,4.20
2022-10-20T14:01:35.228Z,4.40
2022-10-20T14:04:02.649Z,3.50
2022-10-20T14:06:33.765Z,3.72
2022-10-20T14:09:11.339Z,3.90
2022-10-20T14:11:38.853Z,3.90
2022-10-20T14:14:06.075Z,3.53
2022-10-20T14:16:33.650Z,4.85
2022-10-20T14:19:11.508Z,4.00
2022-10-20T14:21:43.344Z,3.22
2022-10-20T14:24:24.371Z,3.47
2022-10-20T14:26:52.392Z,4.13
2022-10-20T14:29:20.742Z,3.47
2022-10-20T14:31:49.249Z,3.45
2022-10-20T14:34:21.089Z,3.80
2022-10-20T14:36:49.347Z,3.03
2022-10-20T14:39:25.847Z,3.08
2022-10-20T14:41:53.932Z,3.22
2022-10-20T14:44:31.084Z,3.05
2022-10-20T14:47:01.249Z,2.92
2022-10-20T14:49:34.459Z,3.40
2022-10-20T14:52:22.099Z,3.88
2022-10-20T14:54:50.590Z,3.40
2022-10-20T14:57:17.867Z,4.05
2022-10-20T14:59:55.944Z,3.45
2022-10-20T15:02:24.118Z,3.60
2022-10-20T15:04:54.715Z,3.28
2022-10-20T15:07:28.361Z,3.03
2022-10-20T15:10:01.499Z,3.42
2022-10-20T15:12:31.729Z,2.95
2022-10-20T15:15:28.966Z,2.50
2022-10-20T15:18:05.152Z,2.72
2022-10-20T15:20:32.578Z,2.22
2022-10-20T15:23:06.076Z,2.63
2022-10-20T15:25:39.332Z,2.90
2022-10-20T15:28:07.720Z,2.85
2022-10-20T15:30:35.069Z,2.80
2022-10-20T15:33:02.368Z,2.58
2022-10-20T15:35:31.153Z,2.60
2022-10-20T15:37:58.558Z,3.25
2022-10-20T15:40:25.748Z,3.20
2022-10-20T15:42:53.064Z,3.05
2022-10-20T15:45:22.007Z,2.92
2022-10-20T15:47:49.626Z,2.67
2022-10-20T15:50:19.454Z,2.85
2022-10-20T15:52:49.068Z,2.70
2022-10-20T15:55:18.499Z,2.80
2022-10-20T15:57:45.730Z,2.60
2022-10-20T16:00:13.369Z,2.47
2022-10-20T16:02:40.688Z,2.70
2022-10-20T16:05:08.050Z,2.67
2022-10-20T16:07:35.551Z,2.40
2022-10-20T16:10:03.013Z,2.88
2022-10-20T16:12:30.411Z,2.80
2022-10-20T16:14:57.629Z,2.78
2022-10-20T16:17:25.057Z,2.58
2022-10-20T16:19:52.290Z,3.03
2022-10-20T16:22:19.711Z,2.63
2022-10-20T16:24:47.388Z,3.30
2022-10-20T16:27:14.999Z,2.90
2022-10-20T16:29:45.109Z,2.55
2022-10-20T16:32:14.963Z,2.70
2022-10-20T16:34:42.181Z,3.00
2022-10-20T16:37:09.549Z,3.10
2022-10-20T16:39:36.844Z,2.85
2022-10-20T16:42:04.163Z,2.83
2022-10-20T16:44:31.559Z,3.25
2022-10-20T16:46:58.952Z,3.20
2022-10-20T16:49:26.271Z,2.95
2022-10-20T16:51:59.159Z,3.00
2022-10-20T16:54:26.639Z,3.38
2022-10-20T16:56:53.818Z,3.20
2022-10-20T16:59:21.308Z,3.25
2022-10-20T17:01:48.471Z,3.50
2022-10-20T17:04:15.792Z,3.17
2022-10-20T17:06:43.137Z,3.33
2022-10-20T17:09:10.525Z,3.60
2022-10-20T17:11:38.414Z,3.85
2022-10-20T17:14:05.706Z,3.55
2022-10-20T17:16:34.165Z,3.00
2022-10-20T17:19:02.291Z,3.22
2022-10-20T17:21:30.940Z,3.40
2022-10-20T17:23:58.759Z,3.47
2022-10-20T17:26:26.824Z,3.35
2022-10-20T17:28:55.292Z,3.30
2022-10-20T17:31:22.733Z,2.90
2022-10-20T17:33:51.438Z,3.13
2022-10-20T17:36:19.806Z,2.97
2022-10-20T17:38:47.114Z,3.20
2022-10-20T17:41:15.540Z,3.03
2022-10-20T17:43:43.044Z,3.30
2022-10-20T17:46:12.447Z,3.47
2022-10-20T17:48:40.146Z,3.88
2022-10-20T17:51:22.234Z,4.68
2022-10-20T17:53:50.626Z,4.65
2022-10-20T17:56:17.850Z,5.65
2022-10-20T17:58:46.252Z,5.38
2022-10-20T18:01:13.558Z,4.80
2022-10-20T18:03:41.679Z,5.53
2022-10-20T18:06:13.774Z,6.10
2022-10-20T18:08:41.355Z,5.80
2022-10-20T18:11:09.878Z,5.00
2022-10-20T18:13:37.888Z,4.60
2022-10-20T18:16:06.033Z,3.75
2022-10-20T18:18:33.371Z,3.85
2022-10-20T18:21:00.648Z,3.90
2022-10-20T18:23:29.741Z,4.85
2022-10-20T18:25:57.204Z,4.70
2022-10-20T18:28:25.183Z,4.82
2022-10-20T18:30:52.571Z,5.95
2022-10-20T18:33:19.895Z,5.00
2022-10-20T18:35:47.246Z,4.95
2022-10-20T18:38:14.575Z,4.95
2022-10-20T18:40:41.862Z,4.68
2022-10-20T18:43:09.368Z,4.88
2022-10-20T18:45:36.551Z,4.35
2022-10-20T18:48:04.610Z,5.68
2022-10-20T18:50:32.478Z,5.50
2022-10-20T18:52:59.783Z,6.38
2022-10-20T18:55:27.008Z,5.82
2022-10-20T18:57:54.377Z,4.80
2022-10-20T19:00:21.777Z,4.82
2022-10-20T19:02:54.815Z,4.97
2022-10-20T19:05:24.552Z,4.68
2022-10-20T19:07:51.730Z,4.93
2022-10-20T19:10:19.122Z,4.70
2022-10-20T19:12:46.353Z,5.13
2022-10-20T19:15:13.631Z,4.85
2022-10-20T19:17:40.856Z,5.35
2022-10-20T19:20:10.275Z,4.70
2022-10-20T19:22:39.451Z,4.75
2022-10-20T19:25:07.137Z,5.13
2022-10-20T19:27:34.624Z,5.07
2022-10-20T19:30:01.947Z,4.80
2022-10-20T19:32:29.291Z,5.10
2022-10-20T19:34:56.667Z,5.90
2022-10-20T19:37:24.595Z,5.20
2022-10-20T19:39:51.838Z,5.28
2022-10-20T19:42:19.208Z,4.55
2022-10-20T19:44:46.600Z,4.80
2022-10-20T19:47:14.013Z,4.90
2022-10-20T19:49:41.356Z,4.43
2022-10-20T19:52:08.950Z,4.70
2022-10-20T19:54:36.331Z,4.82
2022-10-20T19:57:03.723Z,6.20
2022-10-20T19:59:31.055Z,5.43
2022-10-20T20:01:58.591Z,4.90
2022-10-20T20:04:25.757Z,4.82
2022-10-20T20:06:53.055Z,5.25
2022-10-20T20:09:20.363Z,4.93
2022-10-20T20:11:47.807Z,5.43
2022-10-20T20:14:19.267Z,5.70
2022-10-20T20:16:47.396Z,5.25
2022-10-20T20:19:15.337Z,5.40
2022-10-20T20:21:42.648Z,6.40
2022-10-20T20:24:11.834Z,5.95
2022-10-20T20:26:39.141Z,6.25
2022-10-20T20:29:06.344Z,5.82
2022-10-20T20:31:33.645Z,5.63
2022-10-20T20:34:00.960Z,5.25
2022-10-20T20:36:28.926Z,4.97
2022-10-20T20:38:59.687Z,5.40
2022-10-20T20:41:31.343Z,5.47
2022-10-20T20:43:58.614Z,5.32
2022-10-20T20:46:29.167Z,4.95
2022-10-20T20:48:56.730Z,4.97
2022-10-20T20:51:25.234Z,5.43
2022-10-20T20:53:52.709Z,5.22
2022-10-20T20:56:21.971Z,5.45
2022-10-20T20:58:53.609Z,5.45
2022-10-20T21:01:31.331Z,5.80
2022-10-20T21:04:03.145Z,5.40
2022-10-20T21:06:56.441Z,5.68
2022-10-20T21:09:18.205Z,5.75
2022-10-20T21:11:45.931Z,5.07
2022-10-20T21:14:13.190Z,5.10
2022-10-20T21:16:40.448Z,4.97
2022-10-20T21:19:09.651Z,4.85
2022-10-20T21:21:43.978Z,4.95
2022-10-20T21:24:12.661Z,5.18
2022-10-20T21:26:40.255Z,4.28
2022-10-20T21:29:07.602Z,4.60
2022-10-20T21:31:35.100Z,4.38
2022-10-20T21:34:03.688Z,4.10
2022-10-20T21:36:32.421Z,4.03
2022-10-20T21:39:00.280Z,3.92
2022-10-20T21:41:28.915Z,3.25
2022-10-20T21:43:57.434Z,3.40
2022-10-20T21:46:32.312Z,3.70
2022-10-20T21:49:01.355Z,3.55
2022-10-20T21:51:35.707Z,3.25
2022-10-20T21:56:33.028Z,3.22
2022-10-20T21:59:00.455Z,3.05
2022-10-20T22:01:27.973Z,2.63
2022-10-20T22:03:55.387Z,2.97
2022-10-20T22:06:24.945Z,2.60
2022-10-20T22:08:53.890Z,2.28
2022-10-20T22:11:22.852Z,2.35
2022-10-20T22:13:50.392Z,2.00
2022-10-20T22:16:20.048Z,2.17
2022-10-20T22:18:47.361Z,2.55
2022-10-20T22:21:15.941Z,2.45
2022-10-20T22:23:44.263Z,2.17
2022-10-20T22:26:11.566Z,2.35
2022-10-20T22:28:38.989Z,2.40
2022-10-20T22:31:07.435Z,2.13
2022-10-20T22:33:34.807Z,2.30
2022-10-20T22:36:02.076Z,2.40
2022-10-20T22:38:29.359Z,2.35
2022-10-20T22:41:00.164Z,2.40
2022-10-20T22:43:28.026Z,2.60
2022-10-20T22:45:55.347Z,2.40
2022-10-20T22:48:22.668Z,2.15
2022-10-20T22:50:50.276Z,2.17
2022-10-20T22:53:17.561Z,2.20
2022-10-20T22:55:44.906Z,2.47
2022-10-20T22:58:12.306Z,2.72
2022-10-20T23:00:40.384Z,2.90
2022-10-20T23:03:07.871Z,2.42
2022-10-20T23:05:35.139Z,2.92
2022-10-20T23:08:02.590Z,3.05
2022-10-20T23:10:30.039Z,2.78
2022-10-20T23:12:57.406Z,2.60
2022-10-20T23:15:24.762Z,3.00
2022-10-20T23:17:52.020Z,2.88
2022-10-20T23:20:19.329Z,2.70
2022-10-20T23:22:48.507Z,2.83
2022-10-20T23:25:15.786Z,2.92
2022-10-20T23:27:43.167Z,2.85
2022-10-20T23:30:10.708Z,3.13
2022-10-20T23:32:37.998Z,3.20
2022-10-20T23:35:05.512Z,2.75
2022-10-20T23:37:33.665Z,3.58
2022-10-20T23:40:00.856Z,3.35
2022-10-20T23:42:28.269Z,3.33
2022-10-20T23:44:55.563Z,3.00
2022-10-20T23:47:22.891Z,3.17
2022-10-20T23:49:50.182Z,3.42
2022-10-20T23:52:17.475Z,3.40
2022-10-20T23:54:44.673Z,3.97
2022-10-20T23:57:11.998Z,4.25
2022-10-20T23:59:39.195Z,4.20
